createdAt,value
2023-04-11T00:02:23.126Z,22.67
2023-04-11T00:04:49.894Z,22.61
2023-04-11T00:07:16.562Z,22.59
2023-04-11T00:09:44.512Z,22.66
2023-04-11T00:12:11.022Z,22.29
2023-04-11T00:14:38.210Z,22.53
2023-04-11T00:17:06.031Z,22.58
2023-04-11T00:19:33.364Z,22.61
2023-04-11T00:22:00.492Z,22.62
2023-04-11T00:24:27.555Z,22.55
2023-04-11T00:29:13.285Z,22.62
2023-04-11T00:31:39.971Z,22.60
2023-04-11T00:34:06.570Z,22.60
2023-04-11T00:36:33.296Z,22.50
2023-04-11T00:39:01.258Z,22.53
2023-04-11T00:41:27.999Z,22.60
2023-04-11T00:43:54.633Z,22.59
2023-04-11T00:46:21.946Z,22.41
2023-04-11T00:48:48.869Z,22.57
2023-04-11T00:51:15.988Z,22.56
2023-04-11T00:53:43.180Z,22.49
2023-04-11T00:56:11.157Z,22.46
2023-04-11T00:58:39.175Z,22.41
2023-04-11T01:01:09.450Z,22.57
2023-04-11T01:03:38.688Z,22.57
2023-04-11T01:06:07.164Z,22.55
2023-04-11T01:08:36.202Z,22.48
2023-04-11T01:11:03.761Z,22.55
2023-04-11T01:13:33.267Z,22.52
2023-04-11T01:16:00.819Z,22.55
2023-04-11T01:18:27.748Z,22.53
2023-04-11T01:20:55.030Z,22.52
2023-04-11T01:23:24.121Z,22.53
2023-04-11T01:25:51.642Z,22.52
2023-04-11T01:28:19.265Z,22.49
2023-04-11T01:30:46.117Z,22.41
2023-04-11T01:33:14.899Z,22.52
2023-04-11T01:35:41.946Z,22.34
2023-04-11T01:38:09.552Z,22.48
2023-04-11T01:40:37.965Z,22.49
2023-04-11T01:43:04.884Z,22.35
2023-04-11T01:45:31.953Z,22.36
2023-04-11T01:47:58.646Z,22.49
2023-04-11T01:50:25.810Z,22.47
2023-04-11T01:52:52.872Z,22.43
2023-04-11T01:55:19.497Z,22.42
2023-04-11T01:57:46.103Z,22.45
2023-04-11T02:00:13.924Z,22.42
2023-04-11T02:02:45.296Z,22.36
2023-04-11T02:05:12.093Z,22.43
2023-04-11T02:07:38.631Z,22.20
2023-04-11T02:10:06.629Z,22.42
2023-04-11T02:12:33.439Z,22.41
2023-04-11T02:15:00.188Z,22.34
2023-04-11T02:17:30.866Z,22.31
2023-04-11T02:19:57.923Z,22.40
2023-04-11T02:22:24.954Z,22.39
2023-04-11T02:24:51.655Z,22.38
2023-04-11T02:27:18.198Z,22.38
2023-04-11T02:29:44.762Z,22.36
2023-04-11T02:32:11.415Z,22.36
2023-04-11T02:34:38.377Z,22.35
2023-04-11T02:37:05.016Z,22.34
2023-04-11T02:39:33.907Z,22.29
2023-04-11T02:42:00.909Z,22.34
2023-04-11T02:44:29.305Z,22.31
2023-04-11T02:46:57.963Z,22.33
2023-04-11T02:49:25.467Z,22.30
2023-04-11T02:51:53.163Z,22.32
2023-04-11T02:54:19.750Z,22.32
2023-04-11T02:56:46.867Z,22.31
2023-04-11T02:59:13.851Z,22.20
2023-04-11T03:01:41.559Z,22.29
2023-04-11T03:04:08.708Z,22.30
2023-04-11T03:06:44.846Z,22.28
2023-04-11T03:09:12.146Z,22.27
2023-04-11T03:11:38.713Z,22.28
2023-04-11T03:14:05.618Z,22.27
2023-04-11T03:16:32.907Z,22.26
2023-04-11T03:18:59.827Z,22.27
2023-04-11T03:21:27.293Z,22.23
2023-04-11T03:23:54.301Z,22.26
2023-04-11T03:26:21.767Z,22.25
2023-04-11T03:28:48.373Z,22.21
2023-04-11T03:31:19.001Z,22.24
2023-04-11T03:33:46.803Z,22.23
2023-04-11T03:36:13.739Z,22.10
2023-04-11T03:38:40.993Z,22.10
2023-04-11T03:41:07.834Z,22.22
2023-04-11T03:43:34.362Z,22.16
2023-04-11T03:46:01.592Z,22.21
2023-04-11T03:48:37.028Z,22.20
2023-04-11T03:51:07.861Z,21.96
2023-04-11T03:53:44.066Z,22.20
2023-04-11T03:56:23.264Z,22.18
2023-04-11T03:58:50.148Z,22.17
2023-04-11T04:01:19.023Z,22.18
2023-04-11T04:03:47.713Z,22.15
2023-04-11T04:06:14.537Z,22.15
2023-04-11T04:08:41.154Z,22.15
2023-04-11T04:11:07.846Z,22.04
2023-04-11T04:13:36.519Z,22.07
2023-04-11T04:16:17.660Z,22.08
2023-04-11T04:18:50.183Z,22.11
2023-04-11T04:21:17.912Z,22.14
2023-04-11T04:23:47.685Z,22.13
2023-04-11T04:26:49.985Z,22.13
2023-04-11T04:29:46.282Z,22.12
2023-04-11T04:32:23.029Z,22.12
2023-04-11T04:34:57.640Z,22.12
2023-04-11T04:37:45.575Z,22.13
2023-04-11T04:40:41.983Z,22.06
2023-04-11T04:43:18.393Z,22.11
2023-04-11T04:45:58.428Z,22.10
2023-04-11T04:48:35.264Z,22.10
2023-04-11T04:51:04.280Z,22.00
2023-04-11T04:53:34.872Z,21.99
2023-04-11T04:56:02.238Z,21.90
2023-04-11T04:58:31.405Z,22.10
2023-04-11T05:01:02.526Z,22.12
2023-04-11T05:03:34.662Z,22.12
2023-04-11T05:06:03.887Z,21.99
2023-04-11T05:08:31.411Z,21.85
2023-04-11T05:11:01.370Z,22.13
2023-04-11T05:13:28.406Z,21.94
2023-04-11T05:15:54.995Z,21.97
2023-04-11T05:18:25.473Z,22.05
2023-04-11T05:20:52.090Z,22.07
2023-04-11T05:23:22.670Z,22.10
2023-04-11T05:25:51.485Z,22.10
2023-04-11T05:28:18.234Z,22.10
2023-04-11T05:30:45.596Z,22.11
2023-04-11T05:33:14.588Z,22.11
2023-04-11T05:35:43.131Z,22.05
2023-04-11T05:38:10.003Z,22.12
2023-04-11T05:40:37.107Z,22.14
2023-04-11T05:43:03.711Z,22.16
2023-04-11T05:45:30.323Z,21.98
2023-04-11T05:47:57.180Z,22.15
2023-04-11T05:50:24.049Z,22.14
2023-04-11T05:52:53.298Z,22.14
2023-04-11T05:55:19.943Z,22.14
2023-04-11T05:57:46.786Z,22.13
2023-04-11T06:00:16.328Z,21.86
2023-04-11T06:02:43.462Z,22.17
2023-04-11T06:05:12.120Z,22.17
2023-04-11T06:07:39.988Z,22.15
2023-04-11T06:10:07.551Z,22.17
2023-04-11T06:12:34.139Z,22.13
2023-04-11T06:15:01.735Z,21.98
2023-04-11T06:17:28.300Z,22.07
2023-04-11T06:19:54.976Z,22.08
2023-04-11T06:22:22.916Z,22.13
2023-04-11T06:24:49.750Z,22.06
2023-04-11T06:27:16.435Z,22.19
2023-04-11T06:29:43.588Z,22.16
2023-04-11T06:32:11.895Z,22.09
2023-04-11T06:34:40.542Z,21.96
2023-04-11T06:37:08.030Z,22.22
2023-04-11T06:39:35.698Z,22.19
2023-04-11T06:42:03.361Z,22.23
2023-04-11T06:44:32.360Z,22.20
2023-04-11T06:46:59.337Z,22.23
2023-04-11T06:49:28.127Z,22.24
2023-04-11T06:51:55.843Z,22.27
2023-04-11T06:54:22.956Z,22.27
2023-04-11T06:56:52.162Z,22.16
2023-04-11T06:59:20.218Z,22.29
2023-04-11T07:01:47.034Z,22.12
2023-04-11T07:04:13.762Z,22.31
2023-04-11T07:06:40.812Z,22.18
2023-04-11T07:09:09.543Z,22.32
2023-04-11T07:11:36.284Z,22.18
2023-04-11T07:14:02.895Z,22.34
2023-04-11T07:16:29.596Z,22.35
2023-04-11T07:18:56.540Z,22.36
2023-04-11T07:21:23.180Z,22.37
2023-04-11T07:23:49.790Z,22.28
2023-04-11T07:26:17.863Z,22.39
2023-04-11T07:28:45.127Z,22.41
2023-04-11T07:31:12.599Z,22.42
2023-04-11T07:33:42.437Z,22.43
2023-04-11T07:36:09.513Z,22.43
2023-04-11T07:38:37.566Z,22.41
2023-04-11T07:41:05.203Z,22.45
2023-04-11T07:43:32.022Z,22.46
2023-04-11T07:45:59.689Z,22.47
2023-04-11T07:48:27.920Z,22.48
2023-04-11T07:50:55.249Z,22.48
2023-04-11T07:53:25.075Z,22.48
2023-04-11T07:55:51.718Z,22.48
2023-04-11T07:58:18.209Z,22.48
2023-04-11T08:00:44.833Z,22.48
2023-04-11T08:03:13.363Z,22.49
2023-04-11T08:05:40.369Z,22.49
2023-04-11T08:08:07.458Z,22.51
2023-04-11T08:10:34.222Z,22.52
2023-04-11T08:13:00.977Z,22.53
2023-04-11T08:15:27.604Z,22.55
2023-04-11T08:17:57.338Z,22.47
2023-04-11T08:20:24.694Z,22.57
2023-04-11T08:22:51.326Z,22.59
2023-04-11T08:25:19.976Z,22.53
2023-04-11T08:27:46.574Z,22.58
2023-04-11T08:30:13.886Z,22.64
2023-04-11T08:32:43.500Z,22.64
2023-04-11T08:35:10.541Z,22.66
2023-04-11T08:37:37.033Z,22.67
2023-04-11T08:40:06.831Z,22.67
2023-04-11T08:42:34.270Z,22.70
2023-04-11T08:45:04.721Z,22.71
2023-04-11T08:47:32.048Z,22.72
2023-04-11T08:49:58.589Z,22.74
2023-04-11T08:52:25.930Z,22.76
2023-04-11T08:54:56.822Z,22.77
2023-04-11T08:57:31.416Z,22.78
2023-04-11T09:00:25.982Z,22.80
2023-04-11T09:02:59.445Z,22.67
2023-04-11T09:05:54.447Z,22.85
2023-04-11T09:08:21.097Z,22.86
2023-04-11T09:10:47.650Z,22.86
2023-04-11T09:13:26.792Z,22.88
2023-04-11T09:16:06.502Z,22.91
2023-04-11T09:18:37.057Z,22.93
2023-04-11T09:21:06.487Z,22.85
2023-04-11T09:23:33.539Z,22.93
2023-04-11T09:26:00.210Z,22.99
2023-04-11T09:28:27.020Z,22.94
2023-04-11T09:30:55.706Z,23.01
2023-04-11T09:33:25.089Z,23.00
2023-04-11T09:35:53.831Z,23.05
2023-04-11T09:38:36.610Z,23.05
2023-04-11T09:41:04.476Z,22.75
2023-04-11T09:43:55.883Z,23.08
2023-04-11T09:46:22.822Z,23.09
2023-04-11T09:48:51.138Z,23.12
2023-04-11T09:51:34.330Z,23.12
2023-04-11T09:54:03.913Z,23.03
2023-04-11T09:56:31.415Z,23.04
2023-04-11T09:58:59.942Z,23.14
2023-04-11T10:01:27.230Z,23.15
2023-04-11T10:03:56.121Z,23.14
2023-04-11T10:06:33.759Z,23.14
2023-04-11T10:09:08.608Z,23.14
2023-04-11T10:11:36.107Z,23.15
2023-04-11T10:14:05.418Z,23.14
2023-04-11T10:16:34.279Z,23.14
2023-04-11T10:19:01.067Z,23.14
2023-04-11T10:21:27.578Z,23.16
2023-04-11T10:24:16.543Z,23.16
2023-04-11T10:26:59.367Z,23.17
2023-04-11T10:29:29.357Z,23.17
2023-04-11T10:32:08.678Z,23.17
2023-04-11T10:34:38.729Z,23.17
2023-04-11T10:37:12.046Z,23.04
2023-04-11T10:39:53.920Z,23.22
2023-04-11T10:42:29.942Z,23.23
2023-04-11T10:45:17.800Z,23.24
2023-04-11T10:48:01.157Z,23.23
2023-04-11T10:50:28.096Z,23.27
2023-04-11T10:52:56.630Z,23.21
2023-04-11T10:55:24.718Z,23.27
2023-04-11T10:58:10.068Z,23.30
2023-04-11T11:00:51.328Z,23.30
2023-04-11T11:03:20.075Z,23.21
2023-04-11T11:05:47.505Z,23.32
2023-04-11T11:08:14.064Z,23.33
2023-04-11T11:10:48.683Z,23.32
2023-04-11T11:13:16.542Z,23.37
2023-04-11T11:15:48.374Z,23.38
2023-04-11T11:18:15.664Z,23.40
2023-04-11T11:20:45.423Z,23.41
2023-04-11T11:23:12.126Z,23.40
2023-04-11T11:25:38.827Z,23.44
2023-04-11T11:28:09.565Z,23.36
2023-04-11T11:30:37.003Z,23.45
2023-04-11T11:33:18.084Z,23.45
2023-04-11T11:35:55.750Z,23.46
2023-04-11T11:38:26.647Z,23.47
2023-04-11T11:40:53.793Z,23.48
2023-04-11T11:43:20.800Z,23.48
2023-04-11T11:46:07.380Z,23.47
2023-04-11T11:48:35.512Z,23.48
2023-04-11T11:51:05.399Z,23.53
2023-04-11T11:53:32.170Z,23.55
2023-04-11T11:55:59.467Z,23.56
2023-04-11T11:58:26.440Z,23.57
2023-04-11T12:00:53.671Z,23.58
2023-04-11T12:03:22.992Z,23.59
2023-04-11T12:05:52.787Z,23.60
2023-04-11T12:08:22.041Z,23.61
2023-04-11T12:10:50.300Z,23.61
2023-04-11T12:13:25.474Z,23.63
2023-04-11T12:15:55.102Z,23.64
2023-04-11T12:18:26.218Z,23.65
2023-04-11T12:20:53.802Z,23.67
2023-04-11T12:23:21.231Z,23.69
2023-04-11T12:25:47.855Z,23.69
2023-04-11T12:28:14.485Z,23.64
2023-04-11T12:30:41.643Z,23.60
2023-04-11T12:33:08.410Z,23.26
2023-04-11T12:35:35.012Z,23.48
2023-04-11T12:38:02.268Z,23.45
2023-04-11T12:40:30.031Z,23.44
2023-04-11T12:42:57.503Z,23.46
2023-04-11T12:45:25.097Z,23.39
2023-04-11T12:47:51.838Z,23.52
2023-04-11T12:50:18.713Z,23.55
2023-04-11T12:52:45.456Z,23.58
2023-04-11T12:55:13.345Z,23.59
2023-04-11T12:57:41.414Z,23.63
2023-04-11T13:00:12.737Z,23.65
2023-04-11T13:02:43.789Z,23.67
2023-04-11T13:05:15.369Z,23.69
2023-04-11T13:07:44.654Z,23.72
2023-04-11T13:10:11.938Z,23.75
2023-04-11T13:12:43.851Z,23.77
2023-04-11T13:15:12.302Z,23.80
2023-04-11T13:17:39.064Z,23.81
2023-04-11T13:20:07.821Z,23.84
2023-04-11T13:22:34.553Z,23.86
2023-04-11T13:25:01.156Z,23.88
2023-04-11T13:27:27.864Z,23.90
2023-04-11T13:29:54.488Z,23.91
2023-04-11T13:32:21.437Z,23.90
2023-04-11T13:34:48.066Z,23.94
2023-04-11T13:37:14.781Z,23.95
2023-04-11T13:39:41.349Z,23.94
2023-04-11T13:42:08.045Z,23.95
2023-04-11T13:44:34.614Z,23.96
2023-04-11T13:47:02.759Z,23.88
2023-04-11T13:49:29.585Z,23.98
2023-04-11T13:51:56.274Z,23.91
2023-04-11T13:54:22.878Z,23.99
2023-04-11T13:56:49.557Z,24.01
2023-04-11T13:59:16.438Z,24.01
2023-04-11T14:01:43.082Z,24.03
2023-04-11T14:04:12.170Z,24.03
2023-04-11T14:06:39.758Z,24.04
2023-04-11T14:09:06.350Z,23.95
2023-04-11T14:11:33.383Z,24.07
2023-04-11T14:13:59.962Z,24.08
2023-04-11T14:16:26.661Z,24.09
2023-04-11T14:18:53.388Z,24.11
2023-04-11T14:21:22.817Z,24.11
2023-04-11T14:23:49.418Z,24.12
2023-04-11T14:26:16.579Z,24.03
2023-04-11T14:28:43.140Z,24.15
2023-04-11T14:31:09.853Z,24.15
2023-04-11T14:33:36.940Z,24.16
2023-04-11T14:36:03.710Z,24.17
2023-04-11T14:38:30.630Z,24.18
2023-04-11T14:40:57.284Z,24.19
2023-04-11T14:43:24.169Z,24.20
2023-04-11T14:45:55.248Z,24.21
2023-04-11T14:48:23.979Z,24.22
2023-04-11T14:50:50.503Z,24.23
2023-04-11T14:53:17.107Z,24.23
2023-04-11T14:55:44.678Z,24.23
2023-04-11T14:58:11.452Z,24.24
2023-04-11T15:00:38.066Z,24.23
2023-04-11T15:03:04.812Z,24.24
2023-04-11T15:05:31.474Z,24.24
2023-04-11T15:07:58.101Z,24.25
2023-04-11T15:10:25.435Z,24.25
2023-04-11T15:12:52.096Z,24.26
2023-04-11T15:15:18.743Z,24.26
2023-04-11T15:17:47.352Z,24.28
2023-04-11T15:20:15.166Z,24.27
2023-04-11T15:22:44.129Z,24.27
2023-04-11T15:25:13.672Z,24.26
2023-04-11T15:27:41.102Z,24.24
2023-04-11T15:30:08.519Z,24.26
2023-04-11T15:32:35.390Z,24.26
2023-04-11T15:35:02.562Z,24.26
2023-04-11T15:37:29.250Z,24.21
2023-04-11T15:39:57.665Z,24.25
2023-04-11T15:42:24.535Z,24.25
2023-04-11T15:44:51.664Z,23.95
2023-04-11T15:47:18.488Z,24.23
2023-04-11T15:49:45.208Z,24.25
2023-04-11T15:52:12.222Z,24.25
2023-04-11T15:54:38.858Z,24.25
2023-04-11T15:57:05.607Z,24.24
2023-04-11T15:59:33.401Z,24.21
2023-04-11T16:02:00.122Z,24.20
2023-04-11T16:04:27.164Z,24.14
2023-04-11T16:06:54.329Z,24.19
2023-04-11T16:09:21.064Z,24.17
2023-04-11T16:11:48.978Z,24.17
2023-04-11T16:14:15.544Z,24.14
2023-04-11T16:16:45.426Z,24.17
2023-04-11T16:19:11.971Z,24.17
2023-04-11T16:21:38.847Z,24.06
2023-04-11T16:24:05.860Z,24.15
2023-04-11T16:26:32.393Z,23.89
2023-04-11T16:28:58.993Z,24.14
2023-04-11T16:31:25.675Z,24.07
2023-04-11T16:33:53.222Z,24.16
2023-04-11T16:36:20.510Z,24.16
2023-04-11T16:38:49.579Z,24.02
2023-04-11T16:41:17.378Z,24.14
2023-04-11T16:43:44.592Z,24.13
2023-04-11T16:46:13.794Z,24.12
2023-04-11T16:48:45.015Z,24.05
2023-04-11T16:51:12.234Z,24.09
2023-04-11T16:53:39.709Z,24.04
2023-04-11T16:56:06.721Z,24.06
2023-04-11T16:58:33.661Z,23.94
2023-04-11T17:01:01.419Z,24.04
2023-04-11T17:03:28.355Z,24.03
2023-04-11T17:05:55.296Z,24.01
2023-04-11T17:08:22.003Z,23.81
2023-04-11T17:10:48.757Z,23.98
2023-04-11T17:13:17.953Z,23.98
2023-04-11T17:15:47.404Z,23.95
2023-04-11T17:18:14.914Z,23.90
2023-04-11T17:20:43.420Z,23.91
2023-04-11T17:23:10.280Z,23.92
2023-04-11T17:25:37.259Z,23.89
2023-04-11T17:28:04.085Z,23.92
2023-04-11T17:30:31.971Z,23.92
2023-04-11T17:32:59.844Z,23.91
2023-04-11T17:35:28.309Z,23.90
2023-04-11T17:37:55.325Z,23.80
2023-04-11T17:40:24.653Z,23.91
2023-04-11T17:42:51.486Z,23.91
2023-04-11T17:45:19.628Z,23.92
2023-04-11T17:47:47.553Z,23.83
2023-04-11T17:50:15.089Z,23.91
2023-04-11T17:52:43.822Z,23.93
2023-04-11T17:55:12.827Z,23.92
2023-04-11T17:57:39.642Z,23.67
2023-04-11T18:00:22.386Z,23.83
2023-04-11T18:02:52.821Z,23.76
2023-04-11T18:05:24.540Z,23.81
2023-04-11T18:07:54.773Z,23.89
2023-04-11T18:10:21.996Z,23.90
2023-04-11T18:12:52.971Z,23.89
2023-04-11T18:15:24.220Z,23.86
2023-04-11T18:17:52.000Z,23.88
2023-04-11T18:20:21.927Z,23.89
2023-04-11T18:22:51.748Z,23.83
2023-04-11T18:25:18.542Z,23.87
2023-04-11T18:27:51.600Z,23.88
2023-04-11T18:30:18.820Z,23.73
2023-04-11T18:32:52.937Z,23.88
2023-04-11T18:35:20.507Z,23.88
2023-04-11T18:37:47.292Z,23.83
2023-04-11T18:40:14.672Z,23.86
2023-04-11T18:42:54.905Z,23.78
2023-04-11T18:45:24.774Z,23.84
2023-04-11T18:47:55.157Z,23.83
2023-04-11T18:50:23.001Z,23.82
2023-04-11T18:52:53.935Z,23.81
2023-04-11T18:55:23.723Z,23.79
2023-04-11T18:57:53.530Z,23.78
2023-04-11T19:00:22.454Z,23.77
2023-04-11T19:02:50.620Z,23.75
2023-04-11T19:05:19.226Z,23.74
2023-04-11T19:07:48.852Z,23.74
2023-04-11T19:10:15.780Z,23.63
2023-04-11T19:12:45.306Z,23.67
2023-04-11T19:15:12.721Z,23.68
2023-04-11T19:17:49.952Z,23.62
2023-04-11T19:20:19.438Z,23.61
2023-04-11T19:22:49.692Z,23.63
2023-04-11T19:25:16.477Z,23.62
2023-04-11T19:27:44.527Z,23.60
2023-04-11T19:30:20.499Z,23.31
2023-04-11T19:32:51.145Z,23.47
2023-04-11T19:35:21.506Z,23.57
2023-04-11T19:37:55.007Z,23.46
2023-04-11T19:40:28.024Z,23.58
2023-04-11T19:43:01.764Z,23.57
2023-04-11T19:45:32.455Z,23.51
2023-04-11T19:48:03.139Z,23.56
2023-04-11T19:50:30.225Z,23.52
2023-04-11T19:52:57.318Z,23.52
2023-04-11T19:55:31.212Z,23.35
2023-04-11T19:57:58.018Z,23.53
2023-04-11T20:00:31.985Z,23.43
2023-04-11T20:03:04.647Z,23.51
2023-04-11T20:05:34.639Z,23.51
2023-04-11T20:08:01.502Z,23.50
2023-04-11T20:10:48.262Z,23.48
2023-04-11T20:13:17.393Z,23.50
2023-04-11T20:15:49.873Z,23.49
2023-04-11T20:18:24.198Z,23.49
2023-04-11T20:20:51.575Z,23.50
2023-04-11T20:23:19.610Z,23.51
2023-04-11T20:25:47.438Z,23.52
2023-04-11T20:28:14.173Z,23.51
2023-04-11T20:30:41.060Z,23.51
2023-04-11T20:33:07.798Z,23.52
2023-04-11T20:35:34.516Z,23.54
2023-04-11T20:38:01.548Z,23.52
2023-04-11T20:40:28.446Z,23.53
2023-04-11T20:42:56.672Z,23.53
2023-04-11T20:45:25.608Z,23.53
2023-04-11T20:47:52.898Z,23.54
2023-04-11T20:50:23.871Z,23.54
2023-04-11T20:52:51.235Z,23.55
2023-04-11T20:55:17.973Z,23.55
2023-04-11T20:57:45.017Z,23.56
2023-04-11T21:00:16.866Z,23.55
2023-04-11T21:02:46.045Z,23.55
2023-04-11T21:05:13.941Z,23.56
2023-04-11T21:07:41.480Z,23.55
2023-04-11T21:10:08.739Z,23.49
2023-04-11T21:12:35.845Z,23.52
2023-04-11T21:15:03.629Z,23.56
2023-04-11T21:17:34.051Z,23.56
2023-04-11T21:20:02.386Z,23.57
2023-04-11T21:22:28.985Z,23.55
2023-04-11T21:24:55.709Z,23.54
2023-04-11T21:27:22.286Z,23.55
2023-04-11T21:29:48.865Z,23.48
2023-04-11T21:32:15.502Z,23.53
2023-04-11T21:34:42.094Z,23.52
2023-04-11T21:37:08.658Z,23.51
2023-04-11T21:39:35.279Z,23.53
2023-04-11T21:42:01.861Z,23.52
2023-04-11T21:44:28.740Z,23.51
2023-04-11T21:46:55.395Z,23.51
2023-04-11T21:49:22.099Z,23.50
2023-04-11T21:51:48.657Z,23.50
2023-04-11T21:54:15.969Z,23.49
2023-04-11T21:56:44.552Z,23.49
2023-04-11T21:59:11.151Z,23.49
2023-04-11T22:01:37.912Z,23.48
2023-04-11T22:04:04.955Z,23.44
2023-04-11T22:06:34.885Z,23.47
2023-04-11T22:09:05.437Z,23.46
2023-04-11T22:11:32.587Z,23.45
2023-04-11T22:14:00.816Z,23.45
2023-04-11T22:16:31.477Z,23.45
2023-04-11T22:19:00.688Z,23.44
2023-04-11T22:21:28.395Z,23.29
2023-04-11T22:23:57.219Z,23.43
2023-04-11T22:26:34.817Z,23.42
2023-04-11T22:29:05.233Z,23.42
2023-04-11T22:31:38.206Z,23.41
2023-04-11T22:34:05.580Z,23.40
2023-04-11T22:36:35.866Z,23.40
2023-04-11T22:39:06.981Z,23.39
2023-04-11T22:41:35.382Z,23.39
2023-04-11T22:44:02.549Z,23.25
2023-04-11T22:46:31.370Z,23.37
2023-04-11T22:48:57.928Z,23.36
2023-04-11T22:51:24.915Z,23.36
2023-04-11T22:53:53.578Z,23.34
2023-04-11T22:56:20.669Z,23.32
2023-04-11T22:58:47.194Z,23.32
2023-04-11T23:01:14.518Z,23.32
2023-04-11T23:03:42.097Z,23.31
2023-04-11T23:06:08.986Z,23.30
2023-04-11T23:08:35.853Z,23.30
2023-04-11T23:11:03.016Z,23.29
2023-04-11T23:13:29.918Z,23.29
2023-04-11T23:15:56.882Z,23.29
2023-04-11T23:18:23.390Z,23.28
2023-04-11T23:20:50.563Z,23.27
2023-04-11T23:23:17.574Z,23.26
2023-04-11T23:25:45.318Z,23.23
2023-04-11T23:28:12.264Z,23.20
2023-04-11T23:30:39.532Z,23.25
2023-04-11T23:33:08.600Z,23.25
2023-04-11T23:35:35.950Z,23.25
2023-04-11T23:38:03.392Z,23.25
2023-04-11T23:40:30.464Z,23.23
2023-04-11T23:42:57.947Z,23.24
2023-04-11T23:45:25.314Z,23.22
2023-04-11T23:47:52.450Z,23.21
2023-04-11T23:50:19.361Z,23.19
2023-04-11T23:52:46.887Z,23.21
2023-04-11T23:55:13.601Z,23.11
2023-04-11T23:57:40.579Z,23.20
